createdAt,value
2017-05-19T00:00:00.624Z,0
2017-05-19T00:00:41.518Z,0
2017-05-19T00:01:22.420Z,0
2017-05-19T00:02:03.326Z,0
2017-05-19T00:02:44.220Z,0
2017-05-19T00:03:25.114Z,0
2017-05-19T00:04:06.016Z,0
2017-05-19T00:04:46.924Z,0
2017-05-19T00:05:27.818Z,0
2017-05-19T00:06:08.724Z,0
2017-05-19T00:06:49.629Z,0
2017-05-19T00:07:30.513Z,0
2017-05-19T00:08:11.419Z,0
2017-05-19T00:08:52.306Z,0
2017-05-19T00:09:33.194Z,0
2017-05-19T00:10:14.096Z,0
2017-05-19T00:10:54.983Z,0
2017-05-19T00:11:35.857Z,0
2017-05-19T00:12:16.903Z,0
2017-05-19T00:12:57.787Z,0
2017-05-19T00:13:38.689Z,0
2017-05-19T00:14:19.571Z,0
2017-05-19T00:15:00.456Z,0
2017-05-19T00:15:41.350Z,0
2017-05-19T00:16:22.250Z,0
2017-05-19T00:17:03.140Z,0
2017-05-19T00:17:44.041Z,0
2017-05-19T00:18:24.927Z,0
2017-05-19T00:19:05.842Z,0
2017-05-19T00:19:46.755Z,0
2017-05-19T00:20:27.658Z,0
2017-05-19T00:21:08.545Z,0
2017-05-19T00:21:49.440Z,0
2017-05-19T00:22:30.302Z,0
2017-05-19T00:23:11.199Z,0
2017-05-19T00:23:52.120Z,0
2017-05-19T00:24:33.021Z,0
2017-05-19T00:25:13.923Z,0
2017-05-19T00:25:54.828Z,0
2017-05-19T00:26:35.732Z,0
2017-05-19T00:27:16.614Z,0
2017-05-19T00:27:57.534Z,0
2017-05-19T00:28:38.448Z,0
2017-05-19T00:29:19.353Z,0
2017-05-19T00:30:00.245Z,0
2017-05-19T00:30:41.137Z,0
2017-05-19T00:31:22.026Z,0
2017-05-19T00:32:02.917Z,0
2017-05-19T00:32:43.862Z,0
2017-05-19T00:33:24.711Z,0
2017-05-19T00:34:05.616Z,0
2017-05-19T00:34:46.520Z,0
2017-05-19T00:35:27.417Z,0
2017-05-19T00:36:08.311Z,0
2017-05-19T00:36:49.209Z,0
2017-05-19T00:37:30.101Z,0
2017-05-19T00:38:10.999Z,0
2017-05-19T00:38:51.899Z,0
2017-05-19T00:39:32.799Z,0
2017-05-19T00:41:26.442Z,0
2017-05-19T00:42:07.338Z,0
2017-05-19T00:42:48.236Z,0
2017-05-19T00:43:29.128Z,0
2017-05-19T00:44:10.029Z,0
2017-05-19T00:44:50.916Z,0
2017-05-19T00:45:31.794Z,0
2017-05-19T00:46:12.700Z,0
2017-05-19T00:46:53.587Z,0
2017-05-19T00:47:34.475Z,0
2017-05-19T00:48:15.399Z,0
2017-05-19T00:48:56.273Z,0
2017-05-19T00:49:37.149Z,0
2017-05-19T00:50:18.057Z,0
2017-05-19T00:50:58.951Z,0
2017-05-19T00:51:39.829Z,0
2017-05-19T00:52:20.724Z,0
2017-05-19T00:53:01.625Z,0
2017-05-19T00:53:42.529Z,0
2017-05-19T00:54:23.426Z,0
2017-05-19T00:55:04.346Z,0
2017-05-19T00:55:45.243Z,0
2017-05-19T00:56:26.120Z,0
2017-05-19T00:57:07.050Z,0
2017-05-19T00:57:47.900Z,0
2017-05-19T00:58:28.795Z,0
2017-05-19T00:59:09.682Z,0
2017-05-19T00:59:50.595Z,0
2017-05-19T01:00:31.468Z,0
2017-05-19T01:01:12.359Z,0
2017-05-19T01:01:53.253Z,0
2017-05-19T01:02:34.166Z,0
2017-05-19T01:03:15.071Z,0
2017-05-19T01:03:55.961Z,0
2017-05-19T01:04:36.835Z,0
2017-05-19T01:05:17.735Z,0
2017-05-19T01:05:58.636Z,0
2017-05-19T01:06:39.518Z,0
2017-05-19T01:07:20.395Z,0
2017-05-19T01:08:01.296Z,0
2017-05-19T01:08:42.180Z,0
2017-05-19T01:09:23.062Z,0
2017-05-19T01:10:03.946Z,0
2017-05-19T01:10:44.832Z,0
2017-05-19T01:11:25.723Z,0
2017-05-19T01:12:06.615Z,0
2017-05-19T01:12:47.512Z,0
2017-05-19T01:13:28.416Z,0
2017-05-19T01:14:09.329Z,0
2017-05-19T01:14:50.204Z,0
2017-05-19T01:15:31.094Z,0
2017-05-19T01:16:12.004Z,0
2017-05-19T01:16:52.880Z,0
2017-05-19T01:17:33.770Z,0
2017-05-19T01:18:14.677Z,0
2017-05-19T01:18:55.565Z,0
2017-05-19T01:19:36.446Z,0
2017-05-19T01:20:17.350Z,0
2017-05-19T01:20:58.236Z,0
2017-05-19T01:21:39.118Z,0
2017-05-19T01:22:20.011Z,0
2017-05-19T01:23:00.906Z,0
2017-05-19T01:23:41.781Z,0
2017-05-19T01:24:22.670Z,0
2017-05-19T01:25:03.569Z,0
2017-05-19T01:25:44.452Z,0
2017-05-19T01:26:25.339Z,0
2017-05-19T01:27:06.242Z,0
2017-05-19T01:27:47.149Z,0
2017-05-19T01:28:28.046Z,0
2017-05-19T01:29:08.936Z,0
2017-05-19T01:29:49.818Z,0
2017-05-19T01:30:30.723Z,0
2017-05-19T01:31:11.613Z,0
2017-05-19T01:31:52.490Z,0
2017-05-19T01:32:33.373Z,0
2017-05-19T01:33:14.273Z,0
2017-05-19T01:33:55.157Z,0
2017-05-19T01:34:36.042Z,0
2017-05-19T01:35:16.945Z,0
2017-05-19T01:35:57.832Z,0
2017-05-19T01:36:38.739Z,0
2017-05-19T01:37:19.644Z,0
2017-05-19T01:38:00.530Z,0
2017-05-19T01:38:41.449Z,0
2017-05-19T01:39:22.364Z,0
2017-05-19T01:40:03.310Z,0
2017-05-19T01:40:44.236Z,0
2017-05-19T01:41:25.161Z,0
2017-05-19T01:42:06.082Z,0
2017-05-19T01:42:47.032Z,0
2017-05-19T01:43:27.957Z,0
2017-05-19T01:44:08.851Z,0
2017-05-19T01:44:49.764Z,0
2017-05-19T01:45:30.645Z,0
2017-05-19T01:46:11.515Z,0
2017-05-19T01:46:52.406Z,0
2017-05-19T01:47:33.302Z,0
2017-05-19T01:48:14.196Z,0
2017-05-19T01:48:55.093Z,0
2017-05-19T01:49:35.994Z,0
2017-05-19T01:50:16.886Z,0
2017-05-19T01:50:57.789Z,0
2017-05-19T01:51:38.690Z,0
2017-05-19T01:52:19.564Z,0
2017-05-19T01:53:00.459Z,0
2017-05-19T01:53:41.349Z,0
2017-05-19T01:54:22.242Z,0
2017-05-19T01:55:03.142Z,0
2017-05-19T01:55:44.026Z,0
2017-05-19T01:56:24.916Z,0
2017-05-19T01:57:05.818Z,0
2017-05-19T01:57:46.700Z,0
2017-05-19T01:58:27.591Z,0
2017-05-19T01:59:08.491Z,0
2017-05-19T01:59:49.382Z,0
2017-05-19T02:00:30.266Z,0
2017-05-19T02:01:11.178Z,0
2017-05-19T02:01:52.054Z,0
2017-05-19T02:02:32.944Z,0
2017-05-19T02:03:13.855Z,0
2017-05-19T02:03:54.742Z,0
2017-05-19T02:04:35.623Z,0
2017-05-19T02:05:16.523Z,0
2017-05-19T02:05:57.407Z,0
2017-05-19T02:06:38.291Z,0
2017-05-19T02:07:19.185Z,0
2017-05-19T02:08:00.082Z,0
2017-05-19T02:08:40.968Z,0
2017-05-19T02:09:21.869Z,0
2017-05-19T02:10:02.759Z,0
2017-05-19T02:10:43.643Z,0
2017-05-19T02:11:24.546Z,0
2017-05-19T02:12:05.428Z,0
2017-05-19T02:12:46.324Z,0
2017-05-19T02:13:27.229Z,0
2017-05-19T02:14:08.135Z,0
2017-05-19T02:14:49.028Z,0
2017-05-19T02:15:29.902Z,0
2017-05-19T02:16:10.817Z,0
2017-05-19T02:16:51.720Z,0
2017-05-19T02:17:32.642Z,0
2017-05-19T02:18:13.540Z,0
2017-05-19T02:18:54.424Z,0
2017-05-19T02:19:35.340Z,0
2017-05-19T02:20:16.234Z,0
2017-05-19T02:20:57.113Z,0
2017-05-19T02:21:38.010Z,0
2017-05-19T02:22:18.913Z,0
2017-05-19T02:22:59.803Z,0
2017-05-19T02:23:40.702Z,0
2017-05-19T02:24:21.602Z,0
2017-05-19T02:25:02.478Z,0
2017-05-19T02:25:43.367Z,0
2017-05-19T02:26:24.264Z,0
2017-05-19T02:27:05.203Z,0
2017-05-19T02:27:46.043Z,0
2017-05-19T02:28:26.934Z,0
2017-05-19T02:29:07.826Z,0
2017-05-19T02:29:48.735Z,0
2017-05-19T02:30:29.604Z,0
2017-05-19T02:31:10.490Z,0
2017-05-19T02:31:51.386Z,0
2017-05-19T02:32:32.288Z,0
2017-05-19T02:33:13.189Z,0
2017-05-19T02:33:54.082Z,0
2017-05-19T02:34:34.966Z,0
2017-05-19T02:35:15.842Z,0
2017-05-19T02:35:56.735Z,0
2017-05-19T02:36:37.641Z,0
2017-05-19T02:37:18.525Z,0
2017-05-19T02:37:59.415Z,0
2017-05-19T02:38:40.302Z,0
2017-05-19T02:39:21.204Z,0
2017-05-19T02:40:02.105Z,0
2017-05-19T02:40:42.986Z,0
2017-05-19T02:41:23.882Z,0
2017-05-19T02:42:04.775Z,0
2017-05-19T02:42:45.669Z,0
2017-05-19T02:43:26.553Z,0
2017-05-19T02:44:07.441Z,0
2017-05-19T02:44:48.342Z,0
2017-05-19T02:45:29.213Z,0
2017-05-19T02:46:10.099Z,0
2017-05-19T02:46:51.003Z,0
2017-05-19T02:47:31.886Z,0
2017-05-19T02:48:12.768Z,0
2017-05-19T02:48:53.653Z,0
2017-05-19T02:49:34.536Z,0
2017-05-19T02:50:15.417Z,0
2017-05-19T02:50:56.306Z,0
2017-05-19T02:51:37.209Z,0
2017-05-19T02:52:18.144Z,0
2017-05-19T02:52:59.045Z,0
2017-05-19T02:53:39.926Z,0
2017-05-19T02:54:20.822Z,0
2017-05-19T02:55:01.710Z,0
2017-05-19T02:55:42.592Z,0
2017-05-19T02:56:23.479Z,0
2017-05-19T02:57:04.377Z,0
2017-05-19T02:57:45.263Z,0
2017-05-19T02:58:26.150Z,0
2017-05-19T02:59:07.052Z,0
2017-05-19T02:59:47.942Z,5
2017-05-19T03:00:28.830Z,5
2017-05-19T03:01:09.710Z,5
2017-05-19T03:01:50.590Z,5
2017-05-19T03:02:31.473Z,5
2017-05-19T03:03:12.366Z,5
2017-05-19T03:03:53.263Z,5
2017-05-19T03:04:34.146Z,5
2017-05-19T03:05:15.034Z,5
2017-05-19T03:05:55.940Z,5
2017-05-19T03:06:36.820Z,5
2017-05-19T03:07:17.705Z,5
2017-05-19T03:07:58.619Z,5
2017-05-19T03:08:39.510Z,5
2017-05-19T03:09:20.417Z,10
2017-05-19T03:10:01.311Z,10
2017-05-19T03:10:42.200Z,10
2017-05-19T03:11:23.138Z,10
2017-05-19T03:12:04.033Z,10
2017-05-19T03:12:44.930Z,10
2017-05-19T03:13:25.824Z,10
2017-05-19T03:14:06.737Z,10
2017-05-19T03:14:47.603Z,10
2017-05-19T03:15:28.494Z,10
2017-05-19T03:16:09.381Z,10
2017-05-19T03:16:50.270Z,15
2017-05-19T03:17:31.166Z,15
2017-05-19T03:18:12.063Z,15
2017-05-19T03:18:52.958Z,15
2017-05-19T03:19:33.847Z,15
2017-05-19T03:20:14.735Z,15
2017-05-19T03:20:55.632Z,15
2017-05-19T03:21:36.512Z,15
2017-05-19T03:22:17.438Z,15
2017-05-19T03:22:58.326Z,20
2017-05-19T03:23:39.228Z,20
2017-05-19T03:24:20.123Z,20
2017-05-19T03:25:01.006Z,20
2017-05-19T03:25:41.897Z,20
2017-05-19T03:26:22.840Z,20
2017-05-19T03:27:03.680Z,20
2017-05-19T03:27:44.572Z,20
2017-05-19T03:28:25.471Z,25
2017-05-19T03:29:06.360Z,25
2017-05-19T03:29:47.262Z,25
2017-05-19T03:30:28.151Z,25
2017-05-19T03:31:09.034Z,25
2017-05-19T03:31:49.925Z,25
2017-05-19T03:32:30.819Z,25
2017-05-19T03:33:11.694Z,25
2017-05-19T03:33:52.596Z,30
2017-05-19T03:34:33.491Z,30
2017-05-19T03:35:14.373Z,30
2017-05-19T03:35:55.244Z,30
2017-05-19T03:36:36.148Z,30
2017-05-19T03:37:17.046Z,30
2017-05-19T03:37:57.938Z,30
2017-05-19T03:38:38.831Z,30
2017-05-19T03:39:19.725Z,35
2017-05-19T03:40:00.623Z,35
2017-05-19T03:40:41.524Z,35
2017-05-19T03:41:22.407Z,35
2017-05-19T03:42:03.312Z,35
2017-05-19T03:42:44.213Z,35
2017-05-19T03:43:25.106Z,35
2017-05-19T03:44:06.012Z,40
2017-05-19T03:44:46.903Z,40
2017-05-19T03:45:27.789Z,40
2017-05-19T03:46:08.692Z,40
2017-05-19T03:46:49.578Z,40
2017-05-19T03:47:30.462Z,40
2017-05-19T03:48:11.357Z,40
2017-05-19T03:48:52.250Z,45
2017-05-19T03:49:33.138Z,45
2017-05-19T03:50:14.049Z,45
2017-05-19T03:50:54.934Z,45
2017-05-19T03:51:35.809Z,45
2017-05-19T03:52:16.698Z,45
2017-05-19T03:52:57.590Z,45
2017-05-19T03:53:38.492Z,50
2017-05-19T03:54:19.394Z,50
2017-05-19T03:55:00.283Z,50
2017-05-19T03:55:41.172Z,50
2017-05-19T03:56:22.068Z,50
2017-05-19T03:57:02.949Z,50
2017-05-19T03:57:43.818Z,50
2017-05-19T03:58:24.699Z,55
2017-05-19T03:59:05.608Z,55
2017-05-19T03:59:46.490Z,55
2017-05-19T04:00:27.372Z,55
2017-05-19T04:01:08.298Z,55
2017-05-19T04:01:49.174Z,55
2017-05-19T04:02:30.096Z,55
2017-05-19T04:03:10.969Z,60
2017-05-19T04:03:51.847Z,60
2017-05-19T04:04:32.759Z,60
2017-05-19T04:05:13.636Z,60
2017-05-19T04:05:54.506Z,60
2017-05-19T04:06:35.398Z,60
2017-05-19T04:07:16.308Z,65
2017-05-19T04:07:57.195Z,65
2017-05-19T04:08:38.110Z,65
2017-05-19T04:09:19.002Z,65
2017-05-19T04:09:59.897Z,65
2017-05-19T04:10:40.788Z,65
2017-05-19T04:11:21.683Z,70
2017-05-19T04:12:02.570Z,70
2017-05-19T04:12:43.484Z,70
2017-05-19T04:13:24.351Z,70
2017-05-19T04:14:05.246Z,70
2017-05-19T04:14:46.146Z,75
2017-05-19T04:15:27.067Z,75
2017-05-19T04:16:07.973Z,75
2017-05-19T04:16:48.878Z,75
2017-05-19T04:17:29.768Z,75
2017-05-19T04:18:10.697Z,75
2017-05-19T04:18:51.536Z,75
2017-05-19T04:19:32.435Z,80
2017-05-19T04:20:13.334Z,80
2017-05-19T04:20:54.232Z,80
2017-05-19T04:21:35.117Z,80
2017-05-19T04:22:16.013Z,80
2017-05-19T04:22:56.910Z,85
2017-05-19T04:23:37.810Z,85
2017-05-19T04:24:18.698Z,85
2017-05-19T04:24:59.581Z,85
2017-05-19T04:25:40.480Z,85
2017-05-19T04:26:21.374Z,85
2017-05-19T04:27:02.267Z,90
2017-05-19T04:27:43.151Z,90
2017-05-19T04:28:24.049Z,90
2017-05-19T04:29:04.938Z,90
2017-05-19T04:29:45.827Z,90
2017-05-19T04:30:26.725Z,90
2017-05-19T04:31:07.754Z,90
2017-05-19T04:31:48.642Z,90
2017-05-19T04:32:29.530Z,95
2017-05-19T04:33:10.423Z,95
2017-05-19T04:33:51.318Z,95
2017-05-19T04:34:32.210Z,95
2017-05-19T04:35:13.109Z,95
2017-05-19T04:35:54.000Z,95
2017-05-19T04:36:34.962Z,100
2017-05-19T04:38:49.284Z,100
2017-05-19T04:39:30.161Z,100
2017-05-19T04:40:11.046Z,100
2017-05-19T04:40:51.952Z,105
2017-05-19T04:41:32.864Z,105
2017-05-19T04:42:13.723Z,105
2017-05-19T04:42:54.623Z,105
2017-05-19T04:43:35.503Z,105
2017-05-19T04:44:16.402Z,105
2017-05-19T04:44:57.296Z,110
2017-05-19T04:45:38.190Z,110
2017-05-19T04:46:19.079Z,110
2017-05-19T04:46:59.965Z,110
2017-05-19T04:47:40.898Z,110
2017-05-19T04:48:21.805Z,115
2017-05-19T04:49:02.692Z,115
2017-05-19T04:49:43.576Z,115
2017-05-19T04:50:24.477Z,115
2017-05-19T04:51:05.364Z,115
2017-05-19T04:51:46.241Z,120
2017-05-19T04:52:27.138Z,120
2017-05-19T04:53:08.036Z,120
2017-05-19T04:53:48.925Z,120
2017-05-19T04:54:29.809Z,120
2017-05-19T04:55:10.709Z,120
2017-05-19T04:55:51.601Z,120
2017-05-19T04:56:32.495Z,125
2017-05-19T04:57:13.377Z,125
2017-05-19T04:57:54.250Z,125
2017-05-19T04:58:35.122Z,125
2017-05-19T04:59:16.017Z,125
2017-05-19T04:59:56.910Z,130
2017-05-19T05:00:37.789Z,130
2017-05-19T05:01:18.673Z,130
2017-05-19T05:01:59.591Z,130
2017-05-19T05:02:40.465Z,130
2017-05-19T05:03:21.351Z,135
2017-05-19T05:04:02.383Z,135
2017-05-19T05:04:43.263Z,135
2017-05-19T05:05:24.169Z,135
2017-05-19T05:06:05.054Z,135
2017-05-19T05:06:45.939Z,140
2017-05-19T05:07:26.833Z,140
2017-05-19T05:08:07.715Z,140
2017-05-19T05:08:48.595Z,140
2017-05-19T05:09:29.474Z,140
2017-05-19T05:10:10.371Z,140
2017-05-19T05:10:51.263Z,145
2017-05-19T05:11:32.151Z,145
2017-05-19T05:12:13.064Z,145
2017-05-19T05:12:53.939Z,145
2017-05-19T05:13:34.811Z,145
2017-05-19T05:14:15.704Z,150
2017-05-19T05:14:56.630Z,150
2017-05-19T05:15:37.513Z,150
2017-05-19T05:16:18.407Z,150
2017-05-19T05:16:59.278Z,150
2017-05-19T05:17:40.172Z,150
2017-05-19T05:18:21.071Z,155
2017-05-19T05:19:01.965Z,155
2017-05-19T05:19:42.856Z,155
2017-05-19T05:20:23.799Z,155
2017-05-19T05:21:04.668Z,160
2017-05-19T05:21:45.579Z,160
2017-05-19T05:22:26.478Z,160
2017-05-19T05:23:07.374Z,160
2017-05-19T05:23:48.271Z,160
2017-05-19T05:24:29.159Z,160
2017-05-19T05:25:10.056Z,165
2017-05-19T05:25:50.953Z,165
2017-05-19T05:26:31.838Z,165
2017-05-19T05:27:12.732Z,165
2017-05-19T05:27:53.641Z,170
2017-05-19T05:28:34.534Z,170
2017-05-19T05:29:15.427Z,170
2017-05-19T05:29:56.325Z,175
2017-05-19T05:30:37.224Z,175
2017-05-19T05:31:18.119Z,175
2017-05-19T05:31:58.997Z,175
2017-05-19T05:32:39.884Z,175
2017-05-19T05:33:20.783Z,175
2017-05-19T05:34:01.672Z,175
2017-05-19T05:34:42.576Z,175
2017-05-19T05:35:23.469Z,180
2017-05-19T05:36:04.364Z,180
2017-05-19T05:36:45.257Z,180
2017-05-19T05:37:26.150Z,180
2017-05-19T05:38:07.044Z,185
2017-05-19T05:38:47.938Z,185
2017-05-19T05:39:28.819Z,185
2017-05-19T05:40:09.779Z,190
2017-05-19T05:40:50.672Z,190
2017-05-19T05:41:31.574Z,190
2017-05-19T05:42:12.452Z,195
2017-05-19T05:42:53.401Z,195
2017-05-19T05:43:34.295Z,195
2017-05-19T05:44:15.190Z,200
2017-05-19T05:44:56.082Z,200
2017-05-19T05:45:36.975Z,200
2017-05-19T05:46:17.868Z,205
2017-05-19T05:46:58.746Z,205
2017-05-19T05:47:39.632Z,205
2017-05-19T05:48:20.565Z,210
2017-05-19T05:49:01.478Z,210
2017-05-19T05:49:42.370Z,210
2017-05-19T05:50:23.270Z,215
2017-05-19T05:51:04.151Z,215
2017-05-19T05:51:45.054Z,215
2017-05-19T05:52:25.966Z,220
2017-05-19T05:53:06.876Z,220
2017-05-19T05:53:47.804Z,225
2017-05-19T05:54:28.720Z,225
2017-05-19T05:55:09.619Z,230
2017-05-19T05:55:50.529Z,230
2017-05-19T05:56:32.287Z,235
2017-05-19T05:57:13.198Z,240
2017-05-19T05:57:54.097Z,240
2017-05-19T05:58:34.986Z,245
2017-05-19T05:59:15.891Z,245
2017-05-19T05:59:56.796Z,245
2017-05-19T06:00:37.683Z,250
2017-05-19T06:01:18.574Z,255
2017-05-19T06:01:59.473Z,260
2017-05-19T06:02:40.363Z,260
2017-05-19T06:03:21.266Z,265
2017-05-19T06:04:02.157Z,270
2017-05-19T06:04:43.066Z,275
2017-05-19T06:05:23.950Z,280
2017-05-19T06:06:04.870Z,285
2017-05-19T06:06:45.767Z,290
2017-05-19T06:07:26.678Z,295
2017-05-19T06:08:07.587Z,300
2017-05-19T06:08:48.527Z,305
2017-05-19T06:09:29.418Z,310
2017-05-19T06:10:10.386Z,320
2017-05-19T06:10:51.297Z,325
2017-05-19T06:11:32.199Z,330
2017-05-19T06:13:30.990Z,345
2017-05-19T06:14:11.842Z,355
2017-05-19T06:14:52.752Z,360
2017-05-19T06:15:33.644Z,370
2017-05-19T06:16:14.557Z,365
2017-05-19T06:16:55.448Z,370
2017-05-19T06:17:36.377Z,375
2017-05-19T06:18:17.274Z,385
2017-05-19T06:18:58.191Z,395
2017-05-19T06:19:39.102Z,395
2017-05-19T06:20:19.993Z,400
2017-05-19T06:21:00.876Z,410
2017-05-19T06:21:41.775Z,410
2017-05-19T06:22:22.665Z,410
2017-05-19T06:23:03.623Z,415
2017-05-19T06:23:44.539Z,430
2017-05-19T06:24:25.422Z,465
2017-05-19T06:25:06.338Z,495
2017-05-19T06:25:47.248Z,535
2017-05-19T06:26:28.128Z,605
2017-05-19T06:27:09.056Z,845
2017-05-19T06:27:49.976Z,1210
2017-05-19T06:28:30.885Z,1495
2017-05-19T06:29:11.789Z,1530
2017-05-19T06:29:52.693Z,1505
2017-05-19T06:30:33.686Z,1485
2017-05-19T06:31:14.650Z,1520
2017-05-19T06:31:55.568Z,1620
2017-05-19T06:32:36.518Z,1755
2017-05-19T06:33:17.428Z,1790
2017-05-19T06:33:58.334Z,1865
2017-05-19T06:34:39.242Z,1935
2017-05-19T06:35:20.135Z,2005
2017-05-19T06:36:01.079Z,2040
2017-05-19T06:36:41.950Z,2035
2017-05-19T06:37:22.855Z,2000
2017-05-19T06:38:03.749Z,1960
2017-05-19T06:38:44.645Z,1920
2017-05-19T06:39:25.552Z,1920
2017-05-19T06:40:06.457Z,1940
2017-05-19T06:40:47.349Z,2005
2017-05-19T06:41:28.428Z,2085
2017-05-19T06:42:09.308Z,2160
2017-05-19T06:42:50.206Z,2230
2017-05-19T06:43:31.109Z,2245
2017-05-19T06:44:12.030Z,2210
2017-05-19T06:44:53.002Z,2150
2017-05-19T06:45:33.891Z,2045
2017-05-19T06:46:14.790Z,1890
2017-05-19T06:46:55.703Z,1840
2017-05-19T06:47:36.605Z,1880
2017-05-19T06:48:17.506Z,1965
2017-05-19T06:48:58.411Z,1980
2017-05-19T06:49:39.307Z,1930
2017-05-19T06:50:20.219Z,1785
2017-05-19T06:51:01.127Z,1720
2017-05-19T06:51:42.045Z,1650
2017-05-19T06:52:22.960Z,1630
2017-05-19T06:53:03.863Z,1695
2017-05-19T06:53:44.775Z,1825
2017-05-19T06:54:25.688Z,1985
2017-05-19T06:55:06.600Z,2070
2017-05-19T06:55:47.504Z,2140
2017-05-19T06:56:28.421Z,2195
2017-05-19T06:57:09.342Z,2280
2017-05-19T06:57:50.252Z,2340
2017-05-19T06:58:31.163Z,2380
2017-05-19T06:59:12.069Z,2405
2017-05-19T06:59:52.980Z,2425
2017-05-19T07:00:33.880Z,2430
2017-05-19T07:01:14.794Z,2390
2017-05-19T07:01:55.708Z,2325
2017-05-19T07:02:36.618Z,2245
2017-05-19T07:03:17.524Z,2225
2017-05-19T07:03:58.431Z,2235
2017-05-19T07:04:39.336Z,2250
2017-05-19T07:05:20.255Z,2100
2017-05-19T07:06:01.162Z,1925
2017-05-19T07:06:42.060Z,1855
2017-05-19T07:07:22.958Z,1910
2017-05-19T07:08:03.879Z,2085
2017-05-19T07:08:44.772Z,2255
2017-05-19T07:09:25.670Z,2270
2017-05-19T07:10:06.592Z,2275
2017-05-19T07:10:47.509Z,2275
2017-05-19T07:11:28.412Z,2275
2017-05-19T07:12:09.322Z,2265
2017-05-19T07:12:50.225Z,2260
2017-05-19T07:13:31.148Z,2275
2017-05-19T07:14:12.073Z,2265
2017-05-19T07:14:52.957Z,2260
2017-05-19T07:15:33.856Z,2245
2017-05-19T07:16:14.766Z,2250
2017-05-19T07:16:55.671Z,2270
2017-05-19T07:17:36.582Z,2300
2017-05-19T07:18:17.498Z,2355
2017-05-19T07:18:58.408Z,2395
2017-05-19T07:19:39.327Z,2385
2017-05-19T07:20:20.240Z,2380
2017-05-19T07:21:01.146Z,2385
2017-05-19T07:21:42.062Z,2405
2017-05-19T07:22:22.947Z,2390
2017-05-19T07:23:03.858Z,2390
2017-05-19T07:23:44.779Z,2400
2017-05-19T07:24:25.682Z,2425
2017-05-19T07:25:06.580Z,2460
2017-05-19T07:25:47.512Z,2480
2017-05-19T07:26:28.452Z,2420
2017-05-19T07:27:09.355Z,2295
2017-05-19T07:27:50.318Z,2250
2017-05-19T07:28:31.266Z,2260
2017-05-19T07:29:12.165Z,2315
2017-05-19T07:29:53.059Z,2485
2017-05-19T07:30:33.964Z,2595
2017-05-19T07:31:14.882Z,2565
2017-05-19T07:31:55.783Z,2470
2017-05-19T07:32:36.704Z,2410
2017-05-19T07:33:17.613Z,2375
2017-05-19T07:33:58.580Z,2375
2017-05-19T07:34:39.435Z,2435
2017-05-19T07:35:20.443Z,2525
2017-05-19T07:36:01.432Z,2600
2017-05-19T07:36:42.373Z,2670
2017-05-19T07:37:23.281Z,2700
2017-05-19T07:38:04.190Z,2685
2017-05-19T07:38:45.087Z,2670
2017-05-19T07:39:25.988Z,2620
2017-05-19T07:40:06.898Z,2255
2017-05-19T07:40:47.823Z,1680
2017-05-19T07:41:28.715Z,1140
2017-05-19T07:42:09.619Z,755
2017-05-19T07:42:50.518Z,650
2017-05-19T07:43:31.441Z,620
2017-05-19T07:44:12.363Z,595
2017-05-19T07:44:53.271Z,595
2017-05-19T07:45:34.229Z,590
2017-05-19T07:47:34.039Z,585
2017-05-19T07:48:14.963Z,580
2017-05-19T07:48:55.874Z,580
2017-05-19T07:49:36.800Z,585
2017-05-19T07:50:17.716Z,590
2017-05-19T07:50:58.625Z,585
2017-05-19T07:51:39.532Z,585
2017-05-19T07:52:20.482Z,585
2017-05-19T07:53:01.383Z,585
2017-05-19T07:53:42.295Z,585
2017-05-19T07:54:23.208Z,590
2017-05-19T07:55:04.112Z,585
2017-05-19T07:55:45.053Z,590
2017-05-19T07:56:26.008Z,595
2017-05-19T07:57:06.905Z,595
2017-05-19T07:57:47.828Z,595
2017-05-19T07:58:28.740Z,600
2017-05-19T07:59:09.652Z,610
2017-05-19T07:59:50.570Z,615
2017-05-19T08:00:31.479Z,610
2017-05-19T08:01:12.381Z,615
2017-05-19T08:01:53.301Z,625
2017-05-19T08:02:34.211Z,645
2017-05-19T08:03:15.137Z,675
2017-05-19T08:03:56.100Z,940
2017-05-19T08:04:37.002Z,1505
2017-05-19T08:05:17.894Z,1950
2017-05-19T08:05:58.805Z,1930
2017-05-19T08:06:39.714Z,1715
2017-05-19T08:07:20.633Z,2050
2017-05-19T08:08:01.541Z,2665
2017-05-19T08:08:42.452Z,2830
2017-05-19T08:09:23.361Z,2820
2017-05-19T08:10:04.274Z,2825
2017-05-19T08:10:45.206Z,2820
2017-05-19T08:11:26.119Z,2840
2017-05-19T08:12:07.033Z,2815
2017-05-19T08:12:47.959Z,2825
2017-05-19T08:13:28.881Z,2855
2017-05-19T08:14:09.823Z,2860
2017-05-19T08:14:50.739Z,2890
2017-05-19T08:15:31.664Z,2915
2017-05-19T08:16:12.581Z,2930
2017-05-19T08:16:53.494Z,2940
2017-05-19T08:17:34.405Z,2950
2017-05-19T08:18:15.324Z,2965
2017-05-19T08:18:56.262Z,2990
2017-05-19T08:19:37.180Z,3055
2017-05-19T08:20:18.095Z,3110
2017-05-19T08:20:59.014Z,2955
2017-05-19T08:21:39.922Z,2710
2017-05-19T08:22:20.835Z,2610
2017-05-19T08:23:01.749Z,2700
2017-05-19T08:23:42.658Z,3045
2017-05-19T08:24:23.581Z,3020
2017-05-19T08:25:04.515Z,3085
2017-05-19T08:25:45.409Z,3150
2017-05-19T08:26:26.324Z,3170
2017-05-19T08:27:07.249Z,3210
2017-05-19T08:27:48.167Z,3245
2017-05-19T08:28:29.083Z,3265
2017-05-19T08:29:09.986Z,3300
2017-05-19T08:29:50.902Z,3260
2017-05-19T08:30:31.815Z,3145
2017-05-19T08:31:12.759Z,3035
2017-05-19T08:31:53.697Z,2845
2017-05-19T08:32:34.625Z,2735
2017-05-19T08:33:15.542Z,2715
2017-05-19T08:33:56.465Z,2690
2017-05-19T08:34:37.375Z,2670
2017-05-19T08:35:18.306Z,2630
2017-05-19T08:35:59.222Z,2625
2017-05-19T08:36:40.216Z,2645
2017-05-19T08:37:21.148Z,2710
2017-05-19T08:38:02.071Z,2825
2017-05-19T08:38:42.996Z,3050
2017-05-19T08:39:23.961Z,2970
2017-05-19T08:40:04.874Z,2665
2017-05-19T08:40:45.788Z,2670
2017-05-19T08:41:26.704Z,2905
2017-05-19T08:42:07.630Z,3310
2017-05-19T08:42:48.570Z,3360
2017-05-19T08:43:29.472Z,3395
2017-05-19T08:44:10.430Z,3340
2017-05-19T08:44:51.325Z,3325
2017-05-19T08:45:32.256Z,3280
2017-05-19T08:46:13.169Z,3280
2017-05-19T08:46:54.085Z,3305
2017-05-19T08:47:35.007Z,3370
2017-05-19T08:48:15.919Z,3490
2017-05-19T08:48:56.831Z,3525
2017-05-19T08:49:37.763Z,3455
2017-05-19T08:50:18.686Z,3365
2017-05-19T08:50:59.613Z,3235
2017-05-19T08:51:40.542Z,3150
2017-05-19T08:52:21.440Z,3090
2017-05-19T08:53:02.346Z,3075
2017-05-19T08:53:43.272Z,3100
2017-05-19T08:54:24.231Z,3265
2017-05-19T08:55:05.135Z,3370
2017-05-19T08:55:46.075Z,3505
2017-05-19T08:56:27.016Z,3555
2017-05-19T08:57:07.926Z,3610
2017-05-19T08:57:48.876Z,3585
2017-05-19T08:58:29.784Z,3565
2017-05-19T08:59:10.707Z,3540
2017-05-19T08:59:51.616Z,3460
2017-05-19T09:00:32.536Z,3365
2017-05-19T09:01:13.455Z,3285
2017-05-19T09:01:54.404Z,3020
2017-05-19T09:02:35.335Z,2670
2017-05-19T09:03:16.252Z,2710
2017-05-19T09:03:57.170Z,2975
2017-05-19T09:04:38.089Z,3395
2017-05-19T09:05:19.002Z,3475
2017-05-19T09:05:59.925Z,3530
2017-05-19T09:06:40.838Z,3550
2017-05-19T09:07:21.765Z,3570
2017-05-19T09:08:02.681Z,3560
2017-05-19T09:08:43.597Z,3535
2017-05-19T09:09:24.507Z,3500
2017-05-19T09:10:05.429Z,3430
2017-05-19T09:10:46.346Z,3360
2017-05-19T09:11:27.266Z,3345
2017-05-19T09:12:08.193Z,3375
2017-05-19T09:12:49.107Z,3415
2017-05-19T09:13:30.007Z,3575
2017-05-19T09:14:10.979Z,3725
2017-05-19T09:14:51.835Z,3870
2017-05-19T09:15:32.759Z,3945
2017-05-19T09:16:13.682Z,3965
2017-05-19T09:16:54.614Z,3915
2017-05-19T09:17:35.537Z,3780
2017-05-19T09:18:16.454Z,3640
2017-05-19T09:18:57.373Z,3565
2017-05-19T09:19:38.287Z,3500
2017-05-19T09:20:19.199Z,3475
2017-05-19T09:21:00.137Z,3495
2017-05-19T09:21:41.060Z,3530
2017-05-19T09:22:21.983Z,3545
2017-05-19T09:23:02.897Z,3580
2017-05-19T09:23:43.810Z,3580
2017-05-19T09:26:03.186Z,3485
2017-05-19T09:26:44.101Z,3425
2017-05-19T09:27:25.019Z,2875
2017-05-19T09:28:05.937Z,2415
2017-05-19T09:28:46.860Z,1870
2017-05-19T09:29:27.774Z,2215
2017-05-19T09:30:08.706Z,2570
2017-05-19T09:30:49.607Z,3000
2017-05-19T09:31:30.515Z,2830
2017-05-19T09:32:11.439Z,2905
2017-05-19T09:32:52.351Z,3030
2017-05-19T09:33:33.263Z,2930
2017-05-19T09:34:14.178Z,3175
2017-05-19T09:34:55.105Z,2865
2017-05-19T09:35:36.026Z,3370
2017-05-19T09:36:16.968Z,3440
2017-05-19T09:36:57.888Z,3365
2017-05-19T09:37:38.806Z,3290
2017-05-19T09:38:19.722Z,3180
2017-05-19T09:39:00.636Z,3115
2017-05-19T09:39:41.564Z,3060